createdAt,value
2023-01-30T00:01:36.517Z,2.02
2023-01-30T00:04:03.559Z,1.99
2023-01-30T00:06:32.542Z,1.95
2023-01-30T00:08:59.580Z,1.98
2023-01-30T00:11:28.746Z,2.02
2023-01-30T00:13:57.590Z,1.99
2023-01-30T00:16:25.230Z,1.94
2023-01-30T00:18:52.186Z,1.95
2023-01-30T00:21:19.537Z,1.94
2023-01-30T00:23:48.016Z,1.93
2023-01-30T00:26:15.278Z,1.95
2023-01-30T00:28:42.279Z,1.99
2023-01-30T00:31:10.668Z,1.97
2023-01-30T00:33:39.509Z,1.91
2023-01-30T00:36:07.122Z,1.91
2023-01-30T00:38:34.167Z,1.91
2023-01-30T00:41:03.026Z,1.86
2023-01-30T00:43:48.825Z,1.87
2023-01-30T00:46:45.687Z,1.93
2023-01-30T00:49:13.041Z,1.92
2023-01-30T00:51:40.287Z,1.92
2023-01-30T00:54:07.419Z,1.96
2023-01-30T00:56:36.094Z,2.00
2023-01-30T00:59:03.331Z,2.00
2023-01-30T01:01:30.560Z,1.93
2023-01-30T01:03:57.578Z,1.91
2023-01-30T01:06:24.929Z,1.88
2023-01-30T01:08:51.861Z,1.91
2023-01-30T01:11:24.575Z,1.99
2023-01-30T01:13:55.520Z,2.08
2023-01-30T01:16:23.972Z,2.09
2023-01-30T01:18:51.555Z,2.10
2023-01-30T01:21:20.589Z,2.13
2023-01-30T01:23:50.162Z,2.13
2023-01-30T01:26:17.351Z,2.13
2023-01-30T01:28:44.597Z,2.11
2023-01-30T01:31:15.209Z,2.12
2023-01-30T01:33:42.614Z,2.14
2023-01-30T01:36:10.064Z,2.12
2023-01-30T01:38:37.677Z,2.16
2023-01-30T01:41:06.405Z,2.12
2023-01-30T01:43:34.965Z,2.10
2023-01-30T01:46:08.212Z,2.12
2023-01-30T01:48:40.329Z,2.17
2023-01-30T01:51:13.082Z,2.20
2023-01-30T01:53:44.026Z,2.27
2023-01-30T01:56:14.771Z,2.30
2023-01-30T01:58:46.006Z,2.29
2023-01-30T02:01:13.369Z,2.26
2023-01-30T02:03:45.404Z,2.24
2023-01-30T02:06:16.255Z,2.23
2023-01-30T02:08:47.785Z,2.24
2023-01-30T02:11:21.417Z,2.19
2023-01-30T02:13:50.738Z,2.14
2023-01-30T02:16:17.896Z,2.10
2023-01-30T02:18:47.678Z,2.07
2023-01-30T02:21:44.570Z,2.03
2023-01-30T02:24:42.855Z,2.01
2023-01-30T02:27:30.511Z,1.98
2023-01-30T02:30:20.916Z,1.95
2023-01-30T02:33:00.115Z,1.92
2023-01-30T02:35:37.857Z,1.92
2023-01-30T02:38:19.675Z,1.90
2023-01-30T02:40:57.767Z,1.94
2023-01-30T02:43:31.553Z,1.93
2023-01-30T02:46:05.593Z,1.93
2023-01-30T02:48:39.990Z,1.95
2023-01-30T02:51:11.577Z,1.96
2023-01-30T02:53:39.270Z,1.95
2023-01-30T02:56:07.015Z,1.95
2023-01-30T02:58:39.886Z,1.94
2023-01-30T03:01:35.500Z,1.94
2023-01-30T03:04:31.208Z,1.97
2023-01-30T03:07:22.669Z,2.03
2023-01-30T03:10:01.261Z,2.11
2023-01-30T03:12:41.262Z,2.16
2023-01-30T03:15:13.939Z,2.21
2023-01-30T03:17:44.033Z,2.20
2023-01-30T03:20:16.905Z,2.23
2023-01-30T03:22:44.059Z,2.27
2023-01-30T03:25:16.444Z,2.24
2023-01-30T03:27:44.960Z,2.28
2023-01-30T03:30:13.062Z,2.33
2023-01-30T03:32:40.003Z,2.31
2023-01-30T03:35:07.689Z,2.33
2023-01-30T03:37:36.257Z,2.34
2023-01-30T03:40:04.485Z,2.31
2023-01-30T03:42:31.794Z,2.29
2023-01-30T03:44:59.061Z,2.31
2023-01-30T03:47:26.031Z,2.30
2023-01-30T03:49:53.186Z,2.37
2023-01-30T03:52:20.349Z,2.39
2023-01-30T03:54:48.923Z,2.32
2023-01-30T03:57:15.953Z,2.25
2023-01-30T03:59:43.800Z,2.25
2023-01-30T04:02:11.162Z,2.20
2023-01-30T04:04:38.402Z,2.24
2023-01-30T04:07:05.293Z,2.32
2023-01-30T04:09:32.694Z,2.34
2023-01-30T04:12:00.927Z,2.33
2023-01-30T04:14:28.265Z,2.33
2023-01-30T04:16:56.230Z,2.37
2023-01-30T04:19:24.446Z,2.37
2023-01-30T04:21:51.744Z,2.29
2023-01-30T04:24:18.871Z,2.20
2023-01-30T04:26:46.037Z,2.14
2023-01-30T04:29:14.713Z,2.13
2023-01-30T04:31:41.646Z,2.04
2023-01-30T04:34:11.119Z,2.02
2023-01-30T04:36:37.860Z,2.04
2023-01-30T04:39:05.129Z,2.09
2023-01-30T04:41:32.076Z,2.14
2023-01-30T04:43:59.355Z,2.18
2023-01-30T04:46:27.675Z,2.17
2023-01-30T04:48:54.942Z,2.15
2023-01-30T04:51:21.947Z,2.18
2023-01-30T04:53:49.499Z,2.15
2023-01-30T04:56:17.852Z,2.11
2023-01-30T04:58:45.105Z,2.12
2023-01-30T05:01:13.764Z,2.13
2023-01-30T05:03:42.902Z,2.13
2023-01-30T05:06:09.810Z,2.12
2023-01-30T05:08:37.261Z,2.09
2023-01-30T05:11:04.503Z,2.09
2023-01-30T05:13:31.630Z,2.08
2023-01-30T05:15:58.582Z,2.11
2023-01-30T05:18:25.851Z,2.11
2023-01-30T05:20:54.155Z,2.15
2023-01-30T05:23:21.384Z,2.09
2023-01-30T05:25:48.291Z,2.06
2023-01-30T05:28:15.600Z,2.04
2023-01-30T05:30:42.485Z,1.98
2023-01-30T05:33:09.689Z,2.03
2023-01-30T05:35:36.733Z,2.08
2023-01-30T05:38:05.361Z,2.09
2023-01-30T05:40:32.308Z,2.11
2023-01-30T05:42:59.883Z,2.07
2023-01-30T05:45:26.754Z,2.09
2023-01-30T05:47:58.478Z,2.04
2023-01-30T05:50:27.549Z,2.08
2023-01-30T05:52:54.693Z,2.11
2023-01-30T05:55:23.202Z,2.12
2023-01-30T05:57:50.448Z,2.09
2023-01-30T06:00:18.474Z,2.10
2023-01-30T06:02:46.029Z,2.05
2023-01-30T06:05:13.045Z,2.06
2023-01-30T06:07:40.430Z,2.10
2023-01-30T06:10:08.104Z,2.03
2023-01-30T06:12:36.577Z,2.20
2023-01-30T06:15:03.574Z,2.19
2023-01-30T06:17:30.883Z,2.27
2023-01-30T06:19:58.023Z,2.30
2023-01-30T06:22:25.326Z,2.33
2023-01-30T06:24:52.205Z,2.35
2023-01-30T06:27:19.496Z,2.55
2023-01-30T06:29:47.790Z,2.70
2023-01-30T06:32:15.114Z,2.99
2023-01-30T06:34:42.321Z,3.82
2023-01-30T06:37:09.694Z,4.13
2023-01-30T06:39:36.629Z,3.30
2023-01-30T06:42:04.237Z,2.45
2023-01-30T06:44:31.247Z,1.62
2023-01-30T06:46:59.900Z,0.93
2023-01-30T06:49:26.847Z,0.46
2023-01-30T06:51:53.965Z,0.16
2023-01-30T06:54:20.889Z,-0.09
2023-01-30T06:56:49.775Z,-0.17
2023-01-30T06:59:16.788Z,-0.19
2023-01-30T07:01:44.025Z,-0.20
2023-01-30T07:04:12.668Z,-0.23
2023-01-30T07:06:40.303Z,-0.21
2023-01-30T07:09:07.177Z,-0.23
2023-01-30T07:11:34.429Z,-0.17
2023-01-30T07:14:01.433Z,-0.22
2023-01-30T07:16:29.536Z,-0.23
2023-01-30T07:18:59.735Z,-0.23
2023-01-30T07:21:28.349Z,-0.14
2023-01-30T07:23:55.745Z,-0.10
2023-01-30T07:26:23.798Z,-0.03
2023-01-30T07:28:50.836Z,0.04
2023-01-30T07:31:18.104Z,0.09
2023-01-30T07:33:45.058Z,0.17
2023-01-30T07:36:12.341Z,0.20
2023-01-30T07:38:40.933Z,0.58
2023-01-30T07:41:08.165Z,1.04
2023-01-30T07:43:35.563Z,1.43
2023-01-30T07:46:04.016Z,1.70
2023-01-30T07:48:30.973Z,1.93
2023-01-30T07:50:58.069Z,2.09
2023-01-30T07:53:24.976Z,2.19
2023-01-30T07:55:53.646Z,2.25
2023-01-30T07:58:20.522Z,2.34
2023-01-30T08:00:47.861Z,2.44
2023-01-30T08:03:16.845Z,2.47
2023-01-30T08:05:46.749Z,2.52
2023-01-30T08:08:14.417Z,2.53
2023-01-30T08:10:42.009Z,2.59
2023-01-30T08:13:10.393Z,2.64
2023-01-30T08:15:37.724Z,2.68
2023-01-30T08:18:04.739Z,2.67
2023-01-30T08:20:32.012Z,2.68
2023-01-30T08:22:59.714Z,2.65
2023-01-30T08:25:27.046Z,2.65
2023-01-30T08:27:54.466Z,2.65
2023-01-30T08:30:23.272Z,2.69
2023-01-30T08:32:50.268Z,2.79
2023-01-30T08:35:18.100Z,2.79
2023-01-30T08:37:45.223Z,2.82
2023-01-30T08:40:13.490Z,2.85
2023-01-30T08:42:40.789Z,2.88
2023-01-30T08:45:08.814Z,2.91
2023-01-30T08:47:37.150Z,2.93
2023-01-30T08:50:05.247Z,2.91
2023-01-30T08:52:32.575Z,2.96
2023-01-30T08:54:59.747Z,3.01
2023-01-30T08:57:26.740Z,3.03
2023-01-30T08:59:53.994Z,3.07
2023-01-30T09:02:21.108Z,3.15
2023-01-30T09:04:50.024Z,3.24
2023-01-30T09:07:16.960Z,3.22
2023-01-30T09:09:44.131Z,3.20
2023-01-30T09:12:11.164Z,3.21
2023-01-30T09:14:38.398Z,3.22
2023-01-30T09:17:05.273Z,3.25
2023-01-30T09:19:32.828Z,3.29
2023-01-30T09:22:01.201Z,3.36
2023-01-30T09:24:28.740Z,3.31
2023-01-30T09:26:59.984Z,3.33
2023-01-30T09:29:27.650Z,3.52
2023-01-30T09:31:56.563Z,3.95
2023-01-30T09:34:27.669Z,4.16
2023-01-30T09:36:54.736Z,4.24
2023-01-30T09:39:23.474Z,4.20
2023-01-30T09:42:07.717Z,4.11
2023-01-30T09:45:01.737Z,4.01
2023-01-30T09:47:39.451Z,3.96
2023-01-30T09:50:23.830Z,4.13
2023-01-30T09:52:57.963Z,4.20
2023-01-30T09:55:29.355Z,4.08
2023-01-30T09:57:58.615Z,4.02
2023-01-30T10:00:32.381Z,3.98
2023-01-30T10:03:06.664Z,3.94
2023-01-30T10:05:40.735Z,4.02
2023-01-30T10:08:24.153Z,4.09
2023-01-30T10:11:10.183Z,4.14
2023-01-30T10:14:04.726Z,4.08
2023-01-30T10:16:37.522Z,4.05
2023-01-30T10:19:34.885Z,4.13
2023-01-30T10:22:10.917Z,4.12
2023-01-30T10:24:50.900Z,4.15
2023-01-30T10:27:21.331Z,4.14
2023-01-30T10:29:53.153Z,4.18
2023-01-30T10:32:28.987Z,4.14
2023-01-30T10:35:00.350Z,4.26
2023-01-30T10:37:32.423Z,4.52
2023-01-30T10:40:12.923Z,5.02
2023-01-30T10:42:48.036Z,5.20
2023-01-30T10:45:19.786Z,5.20
2023-01-30T10:47:59.683Z,5.36
2023-01-30T10:50:34.565Z,5.26
2023-01-30T10:53:10.012Z,5.23
2023-01-30T10:55:45.375Z,5.20
2023-01-30T10:58:26.413Z,5.13
2023-01-30T11:01:00.245Z,5.03
2023-01-30T11:03:36.631Z,4.99
2023-01-30T11:06:07.538Z,4.90
2023-01-30T11:08:36.101Z,4.70
2023-01-30T11:11:24.575Z,4.55
2023-01-30T11:14:01.413Z,4.52
2023-01-30T11:16:28.401Z,4.43
2023-01-30T11:21:51.585Z,4.45
2023-01-30T11:24:20.712Z,4.50
2023-01-30T11:26:48.769Z,4.57
2023-01-30T11:29:28.767Z,4.62
2023-01-30T11:31:56.785Z,4.69
2023-01-30T11:34:25.487Z,4.79
2023-01-30T11:36:52.735Z,4.84
2023-01-30T11:39:23.473Z,4.95
2023-01-30T11:41:58.991Z,5.01
2023-01-30T11:44:29.489Z,5.11
2023-01-30T11:46:59.374Z,5.40
2023-01-30T11:49:46.543Z,5.44
2023-01-30T11:52:18.001Z,5.35
2023-01-30T11:54:46.365Z,5.36
2023-01-30T11:57:15.158Z,5.35
2023-01-30T11:59:44.945Z,5.27
2023-01-30T12:02:18.248Z,5.35
2023-01-30T12:04:47.185Z,5.21
2023-01-30T12:07:20.392Z,5.02
2023-01-30T12:09:50.360Z,4.94
2023-01-30T12:12:32.859Z,4.87
2023-01-30T12:15:20.177Z,4.93
2023-01-30T12:17:52.641Z,4.95
2023-01-30T12:20:28.539Z,4.96
2023-01-30T12:23:08.475Z,4.88
2023-01-30T12:25:41.587Z,4.88
2023-01-30T12:28:15.269Z,4.71
2023-01-30T12:30:49.381Z,4.85
2023-01-30T12:35:57.079Z,5.00
2023-01-30T12:38:55.714Z,5.04
2023-01-30T12:41:34.849Z,4.94
2023-01-30T12:44:38.430Z,4.90
2023-01-30T12:47:24.992Z,4.77
2023-01-30T12:50:25.538Z,4.61
2023-01-30T12:53:16.814Z,4.52
2023-01-30T12:55:52.967Z,4.46
2023-01-30T12:58:25.092Z,4.46
2023-01-30T13:01:04.562Z,4.51
2023-01-30T13:03:41.931Z,4.58
2023-01-30T13:06:24.204Z,4.74
2023-01-30T13:09:02.686Z,4.72
2023-01-30T13:11:48.312Z,4.71
2023-01-30T13:14:27.305Z,4.76
2023-01-30T13:17:14.371Z,4.83
2023-01-30T13:19:49.517Z,4.83
2023-01-30T13:22:23.599Z,4.76
2023-01-30T13:25:00.809Z,4.87
2023-01-30T13:27:29.445Z,4.74
2023-01-30T13:29:59.573Z,4.74
2023-01-30T13:32:35.729Z,4.67
2023-01-30T13:35:09.769Z,4.48
2023-01-30T13:37:38.150Z,4.45
2023-01-30T13:40:16.978Z,4.47
2023-01-30T13:42:51.161Z,4.38
2023-01-30T13:45:22.134Z,4.38
2023-01-30T13:48:03.602Z,4.48
2023-01-30T13:50:50.548Z,4.49
2023-01-30T13:53:24.808Z,4.53
2023-01-30T13:55:57.440Z,4.47
2023-01-30T13:58:44.144Z,4.50
2023-01-30T14:01:13.180Z,4.44
2023-01-30T14:03:40.372Z,4.39
2023-01-30T14:06:32.445Z,4.19
2023-01-30T14:09:03.312Z,4.10
2023-01-30T14:11:37.938Z,4.02
2023-01-30T14:14:25.162Z,3.96
2023-01-30T14:16:54.792Z,4.01
2023-01-30T14:19:33.706Z,3.92
2023-01-30T14:22:05.475Z,3.91
2023-01-30T14:24:32.440Z,3.95
2023-01-30T14:27:04.888Z,4.02
2023-01-30T14:29:51.398Z,4.01
2023-01-30T14:32:51.455Z,3.95
2023-01-30T14:35:26.239Z,3.98
2023-01-30T14:38:13.517Z,4.07
2023-01-30T14:41:17.071Z,4.25
2023-01-30T14:43:52.830Z,4.20
2023-01-30T14:46:41.383Z,4.12
2023-01-30T14:49:27.158Z,4.07
2023-01-30T14:51:56.245Z,4.00
2023-01-30T14:54:42.121Z,3.90
2023-01-30T14:57:22.871Z,3.96
2023-01-30T15:00:13.390Z,3.93
2023-01-30T15:02:44.312Z,3.80
2023-01-30T15:05:15.324Z,3.76
2023-01-30T15:07:45.702Z,3.71
2023-01-30T15:10:23.721Z,3.78
2023-01-30T15:13:18.879Z,3.78
2023-01-30T15:15:57.590Z,3.64
2023-01-30T15:18:37.609Z,3.47
2023-01-30T15:21:23.755Z,3.42
2023-01-30T15:24:12.544Z,3.51
2023-01-30T15:26:51.407Z,3.47
2023-01-30T15:29:56.783Z,3.44
2023-01-30T15:32:25.654Z,3.48
2023-01-30T15:34:54.302Z,3.47
2023-01-30T15:37:33.237Z,3.42
2023-01-30T15:40:21.984Z,3.40
2023-01-30T15:42:55.897Z,3.38
2023-01-30T15:45:33.043Z,3.33
2023-01-30T15:48:17.802Z,3.28
2023-01-30T15:50:49.114Z,3.23
2023-01-30T15:53:17.265Z,3.22
2023-01-30T15:55:46.390Z,3.15
2023-01-30T15:58:17.948Z,3.13
2023-01-30T16:00:48.182Z,3.10
2023-01-30T16:03:20.465Z,3.10
2023-01-30T16:05:48.565Z,3.02
2023-01-30T16:08:22.504Z,3.03
2023-01-30T16:10:52.694Z,3.09
2023-01-30T16:13:23.822Z,3.13
2023-01-30T16:15:55.376Z,3.13
2023-01-30T16:18:29.205Z,3.14
2023-01-30T16:21:02.508Z,3.19
2023-01-30T16:23:35.302Z,3.20
2023-01-30T16:26:04.248Z,3.17
2023-01-30T16:28:33.249Z,3.11
2023-01-30T16:31:02.695Z,3.14
2023-01-30T16:33:35.916Z,3.04
2023-01-30T16:36:04.360Z,2.92
2023-01-30T16:38:37.265Z,2.90
2023-01-30T16:41:05.375Z,3.04
2023-01-30T16:43:34.488Z,3.08
2023-01-30T16:46:45.190Z,3.04
2023-01-30T16:49:18.346Z,2.91
2023-01-30T16:51:46.266Z,2.91
2023-01-30T16:54:21.329Z,3.02
2023-01-30T16:56:52.425Z,3.11
2023-01-30T16:59:28.684Z,3.18
2023-01-30T17:01:57.135Z,3.17
2023-01-30T17:04:27.859Z,3.07
2023-01-30T17:06:57.049Z,2.87
2023-01-30T17:09:41.679Z,2.20
2023-01-30T17:12:42.891Z,1.57
2023-01-30T17:15:31.019Z,1.08
2023-01-30T17:17:58.512Z,0.83
2023-01-30T17:20:33.410Z,0.71
2023-01-30T17:23:05.772Z,1.16
2023-01-30T17:25:38.158Z,1.09
2023-01-30T17:28:06.788Z,0.75
2023-01-30T17:30:35.694Z,0.97
2023-01-30T17:33:03.166Z,1.39
2023-01-30T17:35:30.409Z,1.72
2023-01-30T17:38:05.108Z,2.03
2023-01-30T17:40:34.750Z,2.26
2023-01-30T17:43:01.793Z,2.49
2023-01-30T17:45:29.907Z,2.63
2023-01-30T17:47:58.182Z,2.64
2023-01-30T17:50:25.661Z,2.64
2023-01-30T17:52:52.564Z,2.63
2023-01-30T17:55:21.273Z,2.55
2023-01-30T17:57:49.151Z,2.54
2023-01-30T18:00:19.477Z,2.56
2023-01-30T18:02:47.063Z,2.55
2023-01-30T18:05:15.957Z,2.59
2023-01-30T18:07:42.996Z,2.64
2023-01-30T18:10:14.480Z,2.54
2023-01-30T18:12:41.584Z,2.56
2023-01-30T18:15:12.128Z,2.60
2023-01-30T18:17:44.305Z,2.62
2023-01-30T18:20:16.525Z,2.52
2023-01-30T18:22:43.822Z,2.49
2023-01-30T18:25:13.452Z,2.48
2023-01-30T18:27:41.260Z,2.54
2023-01-30T18:30:09.702Z,2.60
2023-01-30T18:32:40.624Z,2.67
2023-01-30T18:35:15.619Z,2.76
2023-01-30T18:37:43.994Z,2.76
2023-01-30T18:40:15.084Z,2.88
2023-01-30T18:42:42.699Z,2.81
2023-01-30T18:45:10.261Z,2.86
2023-01-30T18:47:37.239Z,2.88
2023-01-30T18:50:05.740Z,2.93
2023-01-30T18:52:34.011Z,2.91
2023-01-30T18:55:01.275Z,2.88
2023-01-30T18:57:28.175Z,2.64
2023-01-30T18:59:55.354Z,2.75
2023-01-30T19:02:22.259Z,2.65
2023-01-30T19:04:49.481Z,2.62
2023-01-30T19:07:16.435Z,2.58
2023-01-30T19:09:45.080Z,2.59
2023-01-30T19:12:30.633Z,2.61
2023-01-30T19:14:57.811Z,2.65
2023-01-30T19:17:24.842Z,2.67
2023-01-30T19:19:51.968Z,2.75
2023-01-30T19:22:18.978Z,2.78
2023-01-30T19:24:47.438Z,2.69
2023-01-30T19:27:16.003Z,2.65
2023-01-30T19:29:43.440Z,2.65
2023-01-30T19:32:10.437Z,2.59
2023-01-30T19:34:38.524Z,2.51
2023-01-30T19:37:05.905Z,2.49
2023-01-30T19:39:33.012Z,2.57
2023-01-30T19:42:01.566Z,2.57
2023-01-30T19:44:28.954Z,2.46
2023-01-30T19:46:56.039Z,2.64
2023-01-30T19:49:23.249Z,2.66
2023-01-30T19:51:50.091Z,2.75
2023-01-30T19:54:18.743Z,2.79
2023-01-30T19:56:48.323Z,2.77
2023-01-30T19:59:17.160Z,2.78
2023-01-30T20:01:44.180Z,2.81
2023-01-30T20:04:11.596Z,2.74
2023-01-30T20:06:42.844Z,2.83
2023-01-30T20:09:11.386Z,2.75
2023-01-30T20:11:39.724Z,2.80
2023-01-30T20:14:07.578Z,2.82
2023-01-30T20:16:36.606Z,2.77
2023-01-30T20:19:06.178Z,2.75
2023-01-30T20:21:33.650Z,2.79
2023-01-30T20:24:01.779Z,2.78
2023-01-30T20:26:30.684Z,2.77
2023-01-30T20:28:57.750Z,2.74
2023-01-30T20:31:27.692Z,2.77
2023-01-30T20:33:57.826Z,2.83
2023-01-30T20:36:26.877Z,2.80
2023-01-30T20:38:55.604Z,2.67
2023-01-30T20:41:24.321Z,2.73
2023-01-30T20:43:53.993Z,2.66
2023-01-30T20:46:25.500Z,2.58
2023-01-30T20:48:56.394Z,2.62
2023-01-30T20:51:24.965Z,2.69
2023-01-30T20:53:53.821Z,2.77
2023-01-30T20:56:22.121Z,2.83
2023-01-30T20:58:49.408Z,2.75
2023-01-30T21:01:18.840Z,2.63
2023-01-30T21:03:50.707Z,2.57
2023-01-30T21:06:41.363Z,2.59
2023-01-30T21:09:11.130Z,2.59
2023-01-30T21:11:38.520Z,2.41
2023-01-30T21:14:05.862Z,2.59
2023-01-30T21:16:35.062Z,2.54
2023-01-30T21:19:06.000Z,2.46
2023-01-30T21:21:37.092Z,2.38
2023-01-30T21:24:07.784Z,2.32
2023-01-30T21:26:37.040Z,2.30
2023-01-30T21:29:06.775Z,2.31
2023-01-30T21:31:35.883Z,2.35
2023-01-30T21:34:03.750Z,2.36
2023-01-30T21:36:30.785Z,2.41
2023-01-30T21:39:17.925Z,2.41
2023-01-30T21:41:45.779Z,2.34
2023-01-30T21:44:13.655Z,2.30
2023-01-30T21:46:42.221Z,2.32
2023-01-30T21:49:09.933Z,2.30
2023-01-30T21:51:37.814Z,2.26
2023-01-30T21:54:06.395Z,2.29
2023-01-30T21:56:33.402Z,2.28
2023-01-30T21:59:04.194Z,2.19
2023-01-30T22:01:31.943Z,2.22
2023-01-30T22:04:00.421Z,2.19
2023-01-30T22:06:27.513Z,2.20
2023-01-30T22:08:55.496Z,2.14
2023-01-30T22:11:23.977Z,2.16
2023-01-30T22:13:51.895Z,2.12
2023-01-30T22:16:21.171Z,2.12
2023-01-30T22:18:53.150Z,2.18
2023-01-30T22:21:21.558Z,2.16
2023-01-30T22:23:51.022Z,2.18
2023-01-30T22:26:18.880Z,2.22
2023-01-30T22:28:47.639Z,2.17
2023-01-30T22:31:16.556Z,2.15
2023-01-30T22:33:45.698Z,2.11
2023-01-30T22:36:13.666Z,2.14
2023-01-30T22:38:43.277Z,2.17
2023-01-30T22:41:14.627Z,2.25
2023-01-30T22:43:45.392Z,2.20
2023-01-30T22:46:15.625Z,2.30
2023-01-30T22:48:43.556Z,2.31
2023-01-30T22:51:14.173Z,2.36
2023-01-30T22:53:42.951Z,2.37
2023-01-30T22:56:12.011Z,2.45
2023-01-30T22:58:39.476Z,2.46
2023-01-30T23:01:08.059Z,2.41
2023-01-30T23:03:36.984Z,2.34
2023-01-30T23:06:06.199Z,2.33
2023-01-30T23:08:36.090Z,2.52
2023-01-30T23:11:07.181Z,2.57
2023-01-30T23:13:34.718Z,2.58
2023-01-30T23:16:02.286Z,2.64
2023-01-30T23:18:47.859Z,2.64
2023-01-30T23:21:16.824Z,2.70
2023-01-30T23:23:43.890Z,2.71
2023-01-30T23:26:11.644Z,2.69
2023-01-30T23:28:39.081Z,2.73
2023-01-30T23:31:08.248Z,2.88
2023-01-30T23:33:36.455Z,3.12
2023-01-30T23:36:04.515Z,3.47
2023-01-30T23:38:33.262Z,3.69
2023-01-30T23:41:11.598Z,3.67
2023-01-30T23:43:40.440Z,3.51
2023-01-30T23:46:12.551Z,3.37
2023-01-30T23:48:39.896Z,3.39
2023-01-30T23:51:06.921Z,3.65
2023-01-30T23:53:36.299Z,3.87
2023-01-30T23:56:03.802Z,3.77
2023-01-30T23:58:30.939Z,3.61
